Time;durP1;ratioP1;P1;durP2;ratioP2;P2;SDS_P1;SDS_P2;PMS_P1;PMS_P2;Temp;Humidity;BMP_temperature;BMP_pressure;BME280_temperature;BME280_humidity;BME280_pressure;Samples;Min_cycle;Max_cycle;Signal;HPM_P1;HPM_P2
2023/03/09 00:00:50;;;;;;;9.73;1.93;;;11.00;90.70;;;;;;5034531;28;20203;-75
2023/03/09 00:03:16;;;;;;;2.83;1.87;;;11.00;90.80;;;;;;5052181;28;20192;-75
2023/03/09 00:05:43;;;;;;;2.97;2.07;;;11.00;90.80;;;;;;5051691;28;20466;-74
2023/03/09 00:08:09;;;;;;;3.50;2.07;;;11.10;90.80;;;;;;5049681;28;20584;-74
2023/03/09 00:10:39;;;;;;;4.20;1.93;;;11.00;90.90;;;;;;5051678;28;20792;-73
2023/03/09 00:13:05;;;;;;;2.40;1.70;;;11.00;91.10;;;;;;5033064;28;20442;-73
2023/03/09 00:15:30;;;;;;;2.70;1.70;;;11.00;91.30;;;;;;5019685;28;20506;-74
2023/03/09 00:17:56;;;;;;;3.83;1.77;;;11.00;91.50;;;;;;5043336;28;20250;-74
2023/03/09 00:20:22;;;;;;;6.83;2.33;;;11.00;91.60;;;;;;5047207;28;20229;-74
2023/03/09 00:22:50;;;;;;;5.03;2.20;;;10.90;92.00;;;;;;5050740;28;20214;-74
2023/03/09 00:25:16;;;;;;;3.97;1.80;;;10.80;92.40;;;;;;5044186;28;20618;-74
2023/03/09 00:27:42;;;;;;;1.60;1.40;;;10.80;92.70;;;;;;5045617;28;20826;-74
2023/03/09 00:30:09;;;;;;;2.30;1.50;;;10.80;92.10;;;;;;5046428;28;20411;-74
2023/03/09 00:32:35;;;;;;;2.40;1.70;;;10.90;91.30;;;;;;5034166;28;20843;-74
2023/03/09 00:35:01;;;;;;;3.83;1.67;;;11.00;91.10;;;;;;5053483;28;20427;-74
2023/03/09 00:37:27;;;;;;;2.93;1.30;;;11.00;91.60;;;;;;5049884;28;20455;-74
2023/03/09 00:39:52;;;;;;;3.70;1.67;;;10.90;92.00;;;;;;5030114;28;20693;-75
2023/03/09 00:42:18;;;;;;;2.33;1.60;;;10.80;92.30;;;;;;5050133;28;20234;-74
2023/03/09 00:44:46;;;;;;;8.10;1.83;;;10.80;92.50;;;;;;5049794;28;20604;-74
2023/03/09 00:47:11;;;;;;;3.70;1.70;;;10.80;92.60;;;;;;5047368;28;20214;-73
2023/03/09 00:49:37;;;;;;;3.67;1.37;;;10.80;92.80;;;;;;5044434;28;20447;-74
2023/03/09 00:52:03;;;;;;;2.27;1.40;;;10.80;92.80;;;;;;5049215;28;20279;-74
2023/03/09 00:54:28;;;;;;;3.30;1.20;;;10.70;92.50;;;;;;5051260;28;20494;-73
2023/03/09 00:56:54;;;;;;;1.93;1.13;;;10.70;92.40;;;;;;5030746;28;20271;-71
2023/03/09 00:59:19;;;;;;;2.90;1.27;;;10.70;91.50;;;;;;5042183;28;20207;-72
2023/03/09 01:01:45;;;;;;;2.00;1.20;;;10.60;91.60;;;;;;5051019;28;20207;-73
2023/03/09 01:04:10;;;;;;;2.40;1.27;;;10.60;91.60;;;;;;5030231;28;20215;-72
2023/03/09 01:06:36;;;;;;;1.17;0.70;;;10.50;91.60;;;;;;5031552;28;20345;-71
2023/03/09 01:09:02;;;;;;;1.60;1.03;;;10.50;91.00;;;;;;5038755;28;20212;-72
2023/03/09 01:11:28;;;;;;;1.63;0.73;;;10.40;90.40;;;;;;5031237;28;20933;-74
2023/03/09 01:13:53;;;;;;;2.13;0.90;;;10.40;89.30;;;;;;5051472;28;20212;-72
2023/03/09 01:16:19;;;;;;;0.80;0.50;;;10.30;89.90;;;;;;5047718;28;20192;-72
2023/03/09 01:18:45;;;;;;;1.13;0.70;;;10.30;89.70;;;;;;5040798;28;20766;-73
2023/03/09 01:21:11;;;;;;;3.20;0.70;;;10.20;89.00;;;;;;5046166;28;20518;-72
2023/03/09 01:23:37;;;;;;;0.83;0.60;;;10.10;87.30;;;;;;5052882;28;20196;-73
2023/03/09 01:26:04;;;;;;;1.33;0.63;;;10.00;86.90;;;;;;5050964;28;20921;-73
2023/03/09 01:28:30;;;;;;;0.80;0.63;;;10.00;86.30;;;;;;5048727;28;20482;-73
2023/03/09 01:30:56;;;;;;;0.90;0.70;;;10.10;85.50;;;;;;5049779;28;20914;-73
2023/03/09 01:33:21;;;;;;;1.10;0.50;;;10.10;86.00;;;;;;5052331;28;20430;-74
2023/03/09 01:35:47;;;;;;;0.87;0.50;;;10.20;85.00;;;;;;5049542;28;20203;-74
2023/03/09 01:38:13;;;;;;;0.70;0.50;;;10.30;84.40;;;;;;5049065;28;20212;-73
2023/03/09 01:40:38;;;;;;;2.60;0.40;;;10.30;84.10;;;;;;5048652;28;20200;-74
2023/03/09 01:43:43;;;;;;;1.00;0.67;;;10.30;84.70;;;;;;5029475;28;20196;-73
2023/03/09 01:46:31;;;;;;;1.03;0.50;;;10.30;85.00;;;;;;4990455;28;20599;-72
2023/03/09 01:49:21;;;;;;;3.10;1.17;;;10.20;85.70;;;;;;4970332;28;20461;-74
2023/03/09 01:52:00;;;;;;;1.20;0.70;;;10.10;86.30;;;;;;4982207;28;20899;-73
2023/03/09 01:54:28;;;;;;;4.20;0.63;;;10.00;87.10;;;;;;4991848;28;20421;-74
2023/03/09 01:56:57;;;;;;;3.63;0.60;;;9.90;88.10;;;;;;4988361;28;21222;-73
2023/03/09 01:59:27;;;;;;;0.93;0.60;;;9.90;88.00;;;;;;4990960;28;20520;-73
2023/03/09 02:01:53;;;;;;;1.00;0.60;;;9.80;88.10;;;;;;4991385;28;20437;-75
2023/03/09 02:04:25;;;;;;;2.47;0.67;;;9.80;87.70;;;;;;4995111;28;20425;-75
2023/03/09 02:06:52;;;;;;;2.17;0.77;;;9.90;87.70;;;;;;4996028;28;20255;-75
2023/03/09 02:09:37;;;;;;;2.07;0.60;;;9.90;87.60;;;;;;4997397;28;20552;-75
2023/03/09 02:12:03;;;;;;;0.90;0.50;;;9.90;87.70;;;;;;5005894;28;20557;-74
2023/03/09 02:14:29;;;;;;;0.70;0.60;;;9.80;87.60;;;;;;4979771;28;20457;-73
2023/03/09 02:16:54;;;;;;;0.80;0.60;;;9.90;87.10;;;;;;4975508;28;20500;-73
2023/03/09 02:19:48;;;;;;;1.03;0.50;;;9.80;87.00;;;;;;4994654;28;20212;-73
2023/03/09 02:22:14;;;;;;;0.50;0.40;;;9.80;86.00;;;;;;5034164;28;20256;-75
2023/03/09 02:24:59;;;;;;;0.70;0.53;;;9.90;85.20;;;;;;5055759;28;20443;-75
2023/03/09 02:27:27;;;;;;;0.70;0.60;;;9.90;85.00;;;;;;5056218;28;20226;-74
2023/03/09 02:29:54;;;;;;;0.90;0.50;;;9.80;85.00;;;;;;5055251;28;20442;-75
2023/03/09 02:32:20;;;;;;;1.13;0.50;;;9.80;85.30;;;;;;5037937;28;20411;-75
2023/03/09 02:34:46;;;;;;;0.67;0.50;;;9.80;85.30;;;;;;5049790;28;20485;-75
2023/03/09 02:37:35;;;;;;;0.80;0.60;;;9.80;85.60;;;;;;5051459;28;20184;-75
2023/03/09 02:40:10;;;;;;;3.73;0.77;;;9.80;85.60;;;;;;5053384;28;20461;-75
2023/03/09 02:42:36;;;;;;;1.67;0.60;;;9.80;85.50;;;;;;5032718;28;20418;-75
2023/03/09 02:45:01;;;;;;;1.30;0.90;;;9.80;85.00;;;;;;5050271;28;20466;-75
2023/03/09 02:47:27;;;;;;;0.80;0.57;;;9.90;85.20;;;;;;5044841;28;20208;-73
2023/03/09 02:49:53;;;;;;;0.80;0.63;;;9.90;84.90;;;;;;5052524;28;20184;-73
2023/03/09 02:52:18;;;;;;;1.00;0.50;;;9.90;84.60;;;;;;5052483;28;20708;-74
2023/03/09 02:54:44;;;;;;;1.23;0.50;;;9.90;84.70;;;;;;5031406;28;20203;-75
2023/03/09 02:57:10;;;;;;;2.30;0.80;;;10.00;84.00;;;;;;5027924;28;20215;-74
2023/03/09 02:59:35;;;;;;;1.20;0.63;;;10.00;84.10;;;;;;5050581;28;20176;-75
2023/03/09 03:02:01;;;;;;;1.53;0.83;;;10.00;84.40;;;;;;5032424;28;20677;-74
2023/03/09 03:04:27;;;;;;;1.47;0.67;;;10.00;84.60;;;;;;5046806;28;20184;-74
2023/03/09 03:06:52;;;;;;;1.50;0.80;;;10.10;85.00;;;;;;5052571;28;20212;-74
2023/03/09 03:09:18;;;;;;;1.17;0.60;;;10.00;85.20;;;;;;5033022;28;20211;-74
2023/03/09 03:11:43;;;;;;;0.90;0.60;;;10.00;85.70;;;;;;5052487;28;20648;-74
2023/03/09 03:14:09;;;;;;;1.40;0.67;;;10.00;86.30;;;;;;5052456;28;20180;-74
2023/03/09 03:16:34;;;;;;;1.80;0.70;;;9.90;86.60;;;;;;5052678;28;20238;-74
2023/03/09 03:19:00;;;;;;;2.53;0.67;;;9.90;86.50;;;;;;5046856;28;20677;-75
2023/03/09 03:21:26;;;;;;;1.47;0.70;;;10.00;86.90;;;;;;5052780;28;20191;-75
2023/03/09 03:23:52;;;;;;;1.27;0.70;;;10.00;87.10;;;;;;5050975;28;20181;-75
2023/03/09 03:26:18;;;;;;;3.30;0.83;;;10.00;87.10;;;;;;5030536;28;20208;-74
2023/03/09 03:28:44;;;;;;;1.53;0.80;;;10.00;87.30;;;;;;5045460;28;20459;-75
2023/03/09 03:31:10;;;;;;;0.80;0.60;;;10.10;87.60;;;;;;5050742;28;20893;-75
2023/03/09 03:33:36;;;;;;;0.97;0.70;;;10.00;88.10;;;;;;5048455;28;20447;-75
2023/03/09 03:36:01;;;;;;;2.30;0.80;;;10.00;88.60;;;;;;5048506;28;20454;-75
2023/03/09 03:38:27;;;;;;;0.90;0.50;;;10.00;88.70;;;;;;5050097;28;20291;-75
2023/03/09 03:40:53;;;;;;;1.30;0.60;;;10.00;88.30;;;;;;5051303;28;21487;-74
2023/03/09 03:43:18;;;;;;;0.90;0.60;;;10.00;87.40;;;;;;5046702;28;20490;-75
2023/03/09 03:45:44;;;;;;;0.63;0.50;;;9.90;86.20;;;;;;5049466;28;20287;-75
2023/03/09 03:48:10;;;;;;;1.67;0.50;;;9.90;85.50;;;;;;5046736;28;20209;-75
2023/03/09 03:50:35;;;;;;;2.63;0.63;;;9.90;84.70;;;;;;5050585;28;20204;-75
2023/03/09 03:53:01;;;;;;;0.70;0.70;;;9.80;84.40;;;;;;5052914;28;20306;-75
2023/03/09 03:55:27;;;;;;;1.60;0.50;;;9.80;84.30;;;;;;5050543;28;20185;-75
2023/03/09 03:57:52;;;;;;;0.83;0.60;;;9.80;84.60;;;;;;5043691;28;20466;-75
2023/03/09 04:00:19;;;;;;;0.90;0.60;;;9.90;83.60;;;;;;5052800;28;20627;-74
2023/03/09 04:02:45;;;;;;;1.13;0.67;;;9.90;84.00;;;;;;5053960;28;20196;-74
2023/03/09 04:05:11;;;;;;;1.63;0.80;;;9.90;84.30;;;;;;5056674;28;21798;-75
2023/03/09 04:07:37;;;;;;;3.20;0.97;;;9.90;84.30;;;;;;5052177;28;20479;-74
2023/03/09 04:10:03;;;;;;;2.80;0.70;;;9.80;84.30;;;;;;5055264;28;20431;-74
2023/03/09 04:12:29;;;;;;;2.73;1.20;;;9.80;84.40;;;;;;5054775;28;20169;-75
2023/03/09 04:14:55;;;;;;;2.20;1.20;;;9.80;84.90;;;;;;5055823;28;20514;-74
2023/03/09 04:17:20;;;;;;;1.80;0.93;;;9.80;84.60;;;;;;5052571;28;20612;-74
2023/03/09 04:19:46;;;;;;;3.40;1.07;;;9.80;84.40;;;;;;5048981;28;20189;-74
2023/03/09 04:22:11;;;;;;;1.60;1.03;;;9.80;84.90;;;;;;5051891;28;20192;-74
2023/03/09 04:24:37;;;;;;;2.40;1.10;;;9.80;84.70;;;;;;5046836;28;20243;-74
2023/03/09 04:27:02;;;;;;;4.20;1.50;;;9.80;84.40;;;;;;5050734;28;20208;-74
2023/03/09 04:29:28;;;;;;;6.57;1.50;;;9.90;83.80;;;;;;5050626;28;20204;-75
2023/03/09 04:31:53;;;;;;;7.80;1.70;;;9.90;83.70;;;;;;5036360;28;20644;-75
2023/03/09 04:34:19;;;;;;;8.60;2.27;;;9.90;83.10;;;;;;5052674;28;20180;-74
2023/03/09 04:36:45;;;;;;;4.07;1.50;;;10.00;83.10;;;;;;5049091;28;20196;-75
2023/03/09 04:39:10;;;;;;;4.33;1.70;;;9.90;83.30;;;;;;5051099;28;20253;-75
2023/03/09 04:41:36;;;;;;;7.70;1.80;;;9.90;83.00;;;;;;5053581;28;20184;-74
2023/03/09 04:44:02;;;;;;;8.17;1.50;;;9.90;82.70;;;;;;5032208;28;20279;-74
2023/03/09 04:46:27;;;;;;;4.40;1.80;;;10.00;82.40;;;;;;5050286;28;20215;-73
2023/03/09 04:48:53;;;;;;;9.40;2.40;;;9.90;82.20;;;;;;5044824;28;20462;-73
2023/03/09 04:51:19;;;;;;;6.93;2.33;;;9.90;82.40;;;;;;5052246;28;20710;-74
2023/03/09 04:53:44;;;;;;;3.33;1.70;;;9.90;82.10;;;;;;5034792;28;20246;-75
2023/03/09 04:56:10;;;;;;;5.77;2.13;;;9.90;81.80;;;;;;5053046;28;20269;-75
2023/03/09 04:58:36;;;;;;;9.00;2.00;;;9.90;81.90;;;;;;5044839;28;20211;-75
2023/03/09 05:01:01;;;;;;;5.70;1.90;;;9.90;81.70;;;;;;5042112;28;20192;-75
2023/03/09 05:03:28;;;;;;;3.67;2.03;;;10.00;81.10;;;;;;5052633;28;20181;-75
2023/03/09 05:05:53;;;;;;;18.43;2.87;;;9.90;80.90;;;;;;5036250;28;20208;-74
2023/03/09 05:08:19;;;;;;;6.53;2.03;;;9.90;81.20;;;;;;5055887;28;20992;-73
2023/03/09 05:10:45;;;;;;;6.87;2.30;;;9.90;80.90;;;;;;5057801;28;20208;-74
2023/03/09 05:13:11;;;;;;;6.80;2.00;;;9.90;80.90;;;;;;5042655;28;20423;-74
2023/03/09 05:15:40;;;;;;;6.10;1.90;;;9.90;80.20;;;;;;5064307;28;20207;-74
2023/03/09 05:18:07;;;;;;;7.90;2.63;;;9.90;80.00;;;;;;5051069;28;20454;-74
2023/03/09 05:20:33;;;;;;;9.17;2.00;;;10.00;79.90;;;;;;5049983;28;20910;-74
2023/03/09 05:22:59;;;;;;;5.10;2.30;;;10.00;79.70;;;;;;5054169;28;20434;-74
2023/03/09 05:25:25;;;;;;;5.30;2.10;;;10.00;79.70;;;;;;5040387;28;20212;-75
2023/03/09 05:27:51;;;;;;;6.60;2.00;;;10.00;79.30;;;;;;5036952;28;20466;-75
2023/03/09 05:30:17;;;;;;;7.30;1.87;;;10.00;79.00;;;;;;5055785;28;20430;-75
2023/03/09 05:32:43;;;;;;;5.93;1.80;;;10.00;79.00;;;;;;5055129;28;20181;-74
2023/03/09 05:35:08;;;;;;;4.40;1.97;;;10.10;79.20;;;;;;5057511;28;20418;-74
2023/03/09 05:37:34;;;;;;;9.60;2.27;;;10.10;79.00;;;;;;5058621;28;20259;-74
2023/03/09 05:40:00;;;;;;;5.80;2.00;;;10.10;79.00;;;;;;5061354;28;20571;-73
2023/03/09 05:42:26;;;;;;;4.57;1.60;;;10.10;79.00;;;;;;5068247;28;20193;-75
2023/03/09 05:44:51;;;;;;;6.17;1.77;;;10.10;79.20;;;;;;5034257;28;20481;-74
2023/03/09 05:47:17;;;;;;;3.37;2.03;;;10.10;79.00;;;;;;5048066;28;20219;-75
2023/03/09 05:49:42;;;;;;;9.43;2.20;;;10.10;79.20;;;;;;5044885;28;20284;-76
2023/03/09 05:52:08;;;;;;;8.77;2.10;;;10.10;79.50;;;;;;5033063;28;20189;-75
2023/03/09 05:54:34;;;;;;;8.20;2.37;;;10.10;79.70;;;;;;5051357;28;20712;-75
2023/03/09 05:56:59;;;;;;;8.03;1.70;;;10.10;79.90;;;;;;5033417;28;20234;-76
2023/03/09 05:59:25;;;;;;;3.40;1.70;;;10.10;79.70;;;;;;5046767;28;20460;-76
2023/03/09 06:01:50;;;;;;;9.67;2.20;;;10.10;79.30;;;;;;5038696;28;20211;-75
2023/03/09 06:04:16;;;;;;;7.50;1.93;;;10.20;78.70;;;;;;5056898;28;20254;-75
2023/03/09 06:06:41;;;;;;;6.20;2.20;;;10.10;79.30;;;;;;5038137;28;20227;-76
2023/03/09 06:09:07;;;;;;;5.20;2.20;;;10.10;79.50;;;;;;5048051;28;20220;-74
2023/03/09 06:11:33;;;;;;;7.40;1.97;;;10.00;80.00;;;;;;5051005;28;20176;-75
2023/03/09 06:13:58;;;;;;;10.80;1.93;;;10.10;80.20;;;;;;5049216;28;20640;-74
2023/03/09 06:16:26;;;;;;;11.10;2.40;;;10.10;79.90;;;;;;5039374;28;20189;-77
2023/03/09 06:18:54;;;;;;;6.90;2.40;;;10.10;80.00;;;;;;5032961;28;20208;-75
2023/03/09 06:21:19;;;;;;;8.63;2.03;;;10.00;80.30;;;;;;5049648;28;20423;-74
2023/03/09 06:23:45;;;;;;;12.80;3.00;;;10.00;80.30;;;;;;5049031;28;20453;-75
2023/03/09 06:26:12;;;;;;;9.27;2.10;;;10.00;80.30;;;;;;5051953;28;20212;-76
2023/03/09 06:28:37;;;;;;;6.20;1.90;;;10.10;80.50;;;;;;5049777;28;20205;-76
2023/03/09 06:31:08;;;;;;;6.40;1.90;;;10.20;80.00;;;;;;5048364;28;21007;-75
2023/03/09 06:33:33;;;;;;;6.80;2.13;;;10.20;79.70;;;;;;5051361;28;20287;-75
2023/03/09 06:36:01;;;;;;;12.23;2.57;;;10.30;79.50;;;;;;5049799;28;20600;-75
2023/03/09 06:38:26;;;;;;;7.10;2.13;;;10.30;79.50;;;;;;5050523;28;20212;-76
2023/03/09 06:40:55;;;;;;;5.73;2.47;;;10.40;79.30;;;;;;5051965;28;20454;-76
2023/03/09 06:43:21;;;;;;;6.67;3.17;;;10.40;78.40;;;;;;5045416;28;20652;-75
2023/03/09 06:45:48;;;;;;;7.30;2.60;;;10.40;78.30;;;;;;5047806;28;20506;-76
2023/03/09 06:48:14;;;;;;;6.33;1.83;;;10.40;78.10;;;;;;5033275;28;20466;-75
2023/03/09 06:50:40;;;;;;;5.43;2.17;;;10.40;78.00;;;;;;5038064;28;20423;-74
2023/03/09 06:53:06;;;;;;;4.70;1.93;;;10.40;77.80;;;;;;5057761;28;20968;-74
2023/03/09 06:55:31;;;;;;;9.40;2.40;;;10.40;77.80;;;;;;5057140;28;20495;-75
2023/03/09 06:57:57;;;;;;;6.70;2.33;;;10.40;78.00;;;;;;5050790;28;20315;-75
2023/03/09 07:00:23;;;;;;;4.33;1.97;;;10.40;78.40;;;;;;5057667;28;20310;-75
2023/03/09 07:02:48;;;;;;;6.90;2.20;;;10.40;78.60;;;;;;5038689;28;20192;-75
2023/03/09 07:05:14;;;;;;;4.73;1.80;;;10.40;78.70;;;;;;5059788;28;20212;-74
2023/03/09 07:07:42;;;;;;;8.73;2.03;;;10.40;78.90;;;;;;5040819;28;20280;-74
2023/03/09 07:10:10;;;;;;;4.30;2.07;;;10.40;79.20;;;;;;5059799;28;20454;-74
2023/03/09 07:12:35;;;;;;;6.57;1.70;;;10.40;79.00;;;;;;5048820;28;20408;-75
2023/03/09 07:15:01;;;;;;;3.93;1.73;;;10.50;79.00;;;;;;5051295;28;20506;-73
2023/03/09 07:17:27;;;;;;;6.10;2.13;;;10.50;78.70;;;;;;5050351;28;20200;-74
2023/03/09 07:19:52;;;;;;;6.40;1.87;;;10.60;78.40;;;;;;5050781;28;20195;-75
2023/03/09 07:22:18;;;;;;;3.83;1.60;;;10.70;77.60;;;;;;5054335;28;20180;-76
2023/03/09 07:24:44;;;;;;;3.93;1.50;;;10.80;77.30;;;;;;5053337;28;20610;-73
2023/03/09 07:27:09;;;;;;;6.93;2.13;;;10.80;77.00;;;;;;5059800;28;20469;-75
2023/03/09 07:29:35;;;;;;;6.10;2.13;;;10.80;76.70;;;;;;5036912;28;20196;-74
2023/03/09 07:32:02;;;;;;;7.63;1.93;;;10.90;76.50;;;;;;5038175;28;20196;-76
2023/03/09 07:34:28;;;;;;;7.93;2.40;;;10.90;75.90;;;;;;5054371;28;20422;-73
2023/03/09 07:36:53;;;;;;;5.53;1.83;;;10.90;75.90;;;;;;5056309;28;20930;-74
2023/03/09 07:39:19;;;;;;;4.00;1.90;;;10.90;76.20;;;;;;5035036;28;20234;-74
2023/03/09 07:41:44;;;;;;;5.07;1.63;;;10.90;76.40;;;;;;5054567;28;20202;-76
2023/03/09 07:44:10;;;;;;;7.10;2.00;;;11.00;76.10;;;;;;5053720;28;20651;-75
2023/03/09 07:46:36;;;;;;;6.07;2.10;;;11.00;76.10;;;;;;5053690;28;20213;-75
2023/03/09 07:49:01;;;;;;;4.33;1.53;;;11.10;75.70;;;;;;5052704;28;20291;-73
2023/03/09 07:51:28;;;;;;;7.50;2.10;;;11.20;75.40;;;;;;5036727;28;20188;-74
2023/03/09 07:53:54;;;;;;;8.73;1.80;;;11.30;75.20;;;;;;5054658;28;20180;-74
2023/03/09 07:56:19;;;;;;;3.07;1.90;;;11.40;74.30;;;;;;5059791;28;20423;-76
2023/03/09 07:58:46;;;;;;;6.83;1.87;;;11.40;73.20;;;;;;5059404;28;20231;-76
2023/03/09 08:01:16;;;;;;;6.30;1.73;;;11.50;73.20;;;;;;5063364;28;20283;-76
2023/03/09 08:03:42;;;;;;;5.83;1.60;;;11.60;72.90;;;;;;5045406;28;20426;-74
2023/03/09 08:06:09;;;;;;;10.43;1.70;;;11.60;72.70;;;;;;5054576;28;20463;-74
2023/03/09 08:08:35;;;;;;;7.60;2.10;;;11.70;73.00;;;;;;5049464;28;20454;-75
2023/03/09 08:11:03;;;;;;;13.10;1.73;;;11.80;73.00;;;;;;5051539;28;20442;-74
2023/03/09 08:13:29;;;;;;;5.70;1.40;;;11.80;72.60;;;;;;5050716;28;20777;-74
2023/03/09 08:15:54;;;;;;;5.70;1.73;;;11.70;72.60;;;;;;5051240;28;20451;-74
2023/03/09 08:18:20;;;;;;;5.00;1.43;;;11.70;72.70;;;;;;5044146;28;20915;-74
2023/03/09 08:20:46;;;;;;;5.90;1.27;;;11.70;72.90;;;;;;5049908;28;20184;-74
2023/03/09 08:23:12;;;;;;;3.50;1.40;;;11.80;72.60;;;;;;5051200;28;20257;-75
2023/03/09 08:25:38;;;;;;;5.43;2.17;;;11.90;72.30;;;;;;5047591;28;20466;-75
2023/03/09 08:28:04;;;;;;;3.93;1.47;;;12.00;72.00;;;;;;5044038;28;20535;-74
2023/03/09 08:30:30;;;;;;;2.77;1.43;;;12.00;72.00;;;;;;5048751;28;20411;-74
2023/03/09 08:32:57;;;;;;;5.43;1.37;;;12.00;71.40;;;;;;5043305;28;20431;-74
2023/03/09 08:35:28;;;;;;;3.33;1.20;;;12.00;71.30;;;;;;5050368;28;20422;-75
2023/03/09 08:37:53;;;;;;;9.17;1.93;;;12.00;71.60;;;;;;5040344;28;20451;-74
2023/03/09 08:40:19;;;;;;;3.90;1.60;;;12.10;71.70;;;;;;5050101;28;20450;-75
2023/03/09 08:42:45;;;;;;;4.53;1.83;;;12.20;71.80;;;;;;5050665;28;20193;-74
2023/03/09 08:45:11;;;;;;;8.07;1.57;;;12.20;71.80;;;;;;5050362;28;20454;-76
2023/03/09 08:47:37;;;;;;;3.70;1.20;;;12.20;71.60;;;;;;5046697;28;20213;-75
2023/03/09 08:50:04;;;;;;;3.40;1.37;;;12.10;71.40;;;;;;5028747;28;20480;-75
2023/03/09 08:52:34;;;;;;;4.10;1.20;;;12.10;71.70;;;;;;5043247;28;20195;-73
2023/03/09 08:55:00;;;;;;;4.30;1.37;;;12.20;71.60;;;;;;5050614;28;20427;-74
2023/03/09 08:57:27;;;;;;;6.73;1.30;;;12.20;71.80;;;;;;5048034;28;20443;-74
2023/03/09 08:59:53;;;;;;;3.93;1.37;;;12.20;72.10;;;;;;5052384;28;20423;-74
2023/03/09 09:02:19;;;;;;;5.83;1.20;;;12.20;71.70;;;;;;5048726;28;20419;-75
2023/03/09 09:04:45;;;;;;;5.03;1.20;;;12.20;71.80;;;;;;5050322;28;20694;-73
2023/03/09 09:07:11;;;;;;;7.37;1.60;;;12.10;72.10;;;;;;5046244;28;20353;-74
2023/03/09 09:09:38;;;;;;;6.10;1.77;;;12.20;72.10;;;;;;5044346;28;20659;-74
2023/03/09 09:12:03;;;;;;;2.87;1.30;;;12.40;72.40;;;;;;5044690;28;20489;-74
2023/03/09 09:14:29;;;;;;;5.50;1.33;;;12.50;73.00;;;;;;5050242;28;20415;-74
2023/03/09 09:16:55;;;;;;;3.27;1.40;;;12.20;73.60;;;;;;5046895;28;20213;-75
2023/03/09 09:19:22;;;;;;;3.90;1.20;;;11.90;76.10;;;;;;5045551;28;20211;-75
2023/03/09 09:21:48;;;;;;;3.97;1.30;;;11.50;78.60;;;;;;5046369;28;20430;-73
2023/03/09 09:24:14;;;;;;;3.47;1.47;;;11.10;80.90;;;;;;5049761;28;20478;-76
2023/03/09 09:26:40;;;;;;;3.13;1.30;;;10.70;82.40;;;;;;5045777;28;20470;-74
2023/03/09 09:29:06;;;;;;;4.40;1.40;;;10.40;83.10;;;;;;5044249;28;20703;-74
2023/03/09 09:31:33;;;;;;;12.83;1.93;;;10.40;85.00;;;;;;5052347;28;20418;-74
2023/03/09 09:33:59;;;;;;;5.00;1.40;;;10.40;85.50;;;;;;5052798;28;20551;-74
2023/03/09 09:36:24;;;;;;;4.70;1.77;;;10.50;84.40;;;;;;5052201;28;20419;-76
2023/03/09 09:38:52;;;;;;;3.63;1.30;;;10.70;84.30;;;;;;5052042;28;20469;-73
2023/03/09 09:41:18;;;;;;;3.17;1.50;;;10.90;84.40;;;;;;5051213;28;20430;-75
2023/03/09 09:43:46;;;;;;;3.43;1.67;;;11.00;83.10;;;;;;5050302;28;20933;-76
2023/03/09 09:46:15;;;;;;;6.23;1.60;;;11.10;82.40;;;;;;5032367;28;20454;-75
2023/03/09 09:48:43;;;;;;;3.57;1.00;;;11.20;80.90;;;;;;5042763;28;20462;-76
2023/03/09 09:51:15;;;;;;;3.80;1.17;;;11.30;80.20;;;;;;5047985;28;20506;-74
2023/03/09 09:54:05;;;;;;;3.40;1.30;;;11.40;79.50;;;;;;5042865;28;20791;-75
2023/03/09 09:56:47;;;;;;;3.20;1.30;;;11.40;79.00;;;;;;5049846;28;20419;-73
2023/03/09 09:59:21;;;;;;;7.77;1.50;;;11.50;79.00;;;;;;5059975;28;20455;-75
2023/03/09 10:01:57;;;;;;;8.13;1.43;;;11.60;78.10;;;;;;5066374;28;20426;-74
2023/03/09 10:04:35;;;;;;;4.40;1.40;;;11.60;77.60;;;;;;5063804;28;20494;-73
2023/03/09 10:07:12;;;;;;;5.27;1.43;;;11.70;77.70;;;;;;5042904;28;20490;-74
2023/03/09 10:09:40;;;;;;;5.20;1.30;;;11.80;77.10;;;;;;5050481;28;20422;-74
2023/03/09 10:12:12;;;;;;;4.27;1.47;;;11.90;77.10;;;;;;5058336;28;20411;-74
2023/03/09 10:14:55;;;;;;;5.23;1.33;;;12.00;76.20;;;;;;5059579;28;20454;-76
2023/03/09 10:17:29;;;;;;;5.70;1.50;;;12.10;75.90;;;;;;5051807;28;20425;-75
2023/03/09 10:20:09;;;;;;;2.90;1.47;;;12.20;75.80;;;;;;5050113;28;20423;-75
2023/03/09 10:22:37;;;;;;;4.37;1.40;;;12.10;75.20;;;;;;5039954;28;20505;-74
2023/03/09 10:25:10;;;;;;;3.20;1.40;;;12.00;75.20;;;;;;5053091;28;20422;-76
2023/03/09 10:27:46;;;;;;;2.53;1.20;;;12.00;76.10;;;;;;5045682;28;20544;-75
2023/03/09 10:30:21;;;;;;;5.60;1.67;;;12.10;75.90;;;;;;5033665;28;20426;-73
2023/03/09 10:32:57;;;;;;;5.73;1.80;;;12.10;76.20;;;;;;5037262;28;20502;-73
2023/03/09 10:35:30;;;;;;;2.30;1.30;;;12.30;76.20;;;;;;5054866;28;20430;-73
2023/03/09 10:37:55;;;;;;;4.03;1.20;;;12.50;75.50;;;;;;5053387;28;20458;-73
2023/03/09 10:40:29;;;;;;;4.37;1.43;;;12.60;75.40;;;;;;5037307;28;20458;-74
2023/03/09 10:42:57;;;;;;;3.73;1.20;;;12.30;74.30;;;;;;5034122;28;20604;-74
2023/03/09 10:45:28;;;;;;;3.73;1.20;;;12.20;74.90;;;;;;5038942;28;20945;-74
2023/03/09 10:48:20;;;;;;;3.53;1.77;;;12.30;74.80;;;;;;5054982;28;20458;-73
2023/03/09 10:51:23;;;;;;;5.07;1.27;;;12.70;74.00;;;;;;5047157;28;20494;-74
2023/03/09 10:53:49;;;;;;;3.53;1.10;;;12.80;73.00;;;;;;4982820;28;20434;-76
2023/03/09 10:56:20;;;;;;;3.43;1.30;;;13.00;72.30;;;;;;5055731;28;20422;-74
2023/03/09 10:58:57;;;;;;;5.70;1.63;;;13.10;71.40;;;;;;5040463;28;20929;-75
2023/03/09 11:01:24;;;;;;;4.40;1.50;;;13.30;71.40;;;;;;5035451;28;20427;-75
2023/03/09 11:03:50;;;;;;;6.23;1.60;;;13.60;70.40;;;;;;5053496;28;20422;-73
2023/03/09 11:06:16;;;;;;;2.27;1.37;;;13.40;69.20;;;;;;5053548;28;20837;-75
2023/03/09 11:08:43;;;;;;;5.23;1.40;;;13.30;69.70;;;;;;5047169;28;20262;-74
2023/03/09 11:11:18;;;;;;;3.47;1.17;;;13.50;69.50;;;;;;5055346;28;20184;-74
2023/03/09 11:13:47;;;;;;;3.30;1.70;;;13.50;69.20;;;;;;5049963;28;20505;-74
2023/03/09 11:16:28;;;;;;;3.33;1.40;;;13.80;69.20;;;;;;5051259;28;20427;-74
2023/03/09 11:19:10;;;;;;;3.40;1.80;;;14.20;68.30;;;;;;5045050;28;20464;-74
2023/03/09 11:21:37;;;;;;;4.43;1.90;;;14.10;67.20;;;;;;5050239;28;20493;-74
2023/03/09 11:24:03;;;;;;;4.30;1.67;;;14.20;68.20;;;;;;5054111;28;20425;-73
2023/03/09 11:26:39;;;;;;;7.80;2.00;;;14.40;67.30;;;;;;5053581;28;20518;-72
2023/03/09 11:29:31;;;;;;;4.67;1.50;;;14.50;67.20;;;;;;5045914;28;20208;-74
2023/03/09 11:31:57;;;;;;;3.57;1.47;;;14.70;66.00;;;;;;5048471;28;20478;-74
2023/03/09 11:34:39;;;;;;;5.53;1.50;;;14.90;66.30;;;;;;5051741;28;20866;-74
2023/03/09 11:37:49;;;;;;;7.90;1.70;;;14.70;65.60;;;;;;5048643;28;20944;-73
2023/03/09 11:40:18;;;;;;;3.20;1.20;;;14.30;66.00;;;;;;5046706;28;20466;-74
2023/03/09 11:43:02;;;;;;;6.93;1.87;;;14.40;66.10;;;;;;5054143;28;20432;-73
2023/03/09 11:45:37;;;;;;;2.77;1.37;;;14.30;66.10;;;;;;5055431;28;20554;-74
2023/03/09 11:48:28;;;;;;;4.30;1.27;;;14.40;65.70;;;;;;5044018;28;20489;-74
2023/03/09 11:51:08;;;;;;;3.80;1.20;;;14.40;65.80;;;;;;5047688;28;20425;-74
2023/03/09 11:53:56;;;;;;;6.97;1.63;;;14.10;66.00;;;;;;5046223;28;20429;-74
2023/03/09 11:56:33;;;;;;;3.60;1.60;;;14.00;66.90;;;;;;5052214;28;20894;-72
2023/03/09 11:59:14;;;;;;;4.33;1.70;;;13.90;66.60;;;;;;5045195;28;20456;-73
2023/03/09 12:01:56;;;;;;;3.07;1.57;;;14.10;66.30;;;;;;5046278;28;20430;-72
2023/03/09 12:04:22;;;;;;;6.10;1.27;;;14.10;66.00;;;;;;5052264;28;20451;-73
2023/03/09 12:07:03;;;;;;;3.60;1.50;;;14.00;66.30;;;;;;5050816;28;21008;-74
2023/03/09 12:09:51;;;;;;;4.70;1.20;;;13.90;66.30;;;;;;5050749;28;20227;-74
2023/03/09 12:12:35;;;;;;;2.60;0.90;;;13.60;66.90;;;;;;5050179;28;20541;-73
2023/03/09 12:15:39;;;;;;;3.10;1.30;;;13.40;67.20;;;;;;5024575;28;20434;-74
2023/03/09 12:18:15;;;;;;;10.10;1.60;;;13.30;67.90;;;;;;5048304;28;20469;-74
2023/03/09 12:20:50;;;;;;;4.10;1.60;;;13.30;68.60;;;;;;5047914;28;20437;-73
2023/03/09 12:23:39;;;;;;;5.60;1.50;;;13.50;68.50;;;;;;5051554;28;20423;-73
2023/03/09 12:26:22;;;;;;;3.00;1.50;;;13.90;67.90;;;;;;5051907;28;20474;-74
2023/03/09 12:29:04;;;;;;;6.27;1.23;;;14.30;66.90;;;;;;5045751;28;20542;-74
2023/03/09 12:31:35;;;;;;;6.97;1.50;;;14.50;66.10;;;;;;5048231;28;20969;-73
2023/03/09 12:34:11;;;;;;;3.73;1.37;;;14.20;65.40;;;;;;5051443;28;21052;-74
2023/03/09 12:36:41;;;;;;;4.57;1.37;;;14.10;65.60;;;;;;5046712;28;20430;-73
2023/03/09 12:39:22;;;;;;;5.40;1.87;;;14.10;66.00;;;;;;5050541;28;21263;-73
2023/03/09 12:42:07;;;;;;;4.17;1.27;;;14.20;65.80;;;;;;5045556;28;20797;-74
2023/03/09 12:44:45;;;;;;;3.53;1.67;;;14.10;65.80;;;;;;5051784;28;20420;-73
2023/03/09 12:47:42;;;;;;;2.90;1.50;;;14.20;66.00;;;;;;5049287;28;20479;-72
2023/03/09 12:50:26;;;;;;;3.20;1.37;;;14.50;65.00;;;;;;5031647;28;20427;-75
2023/03/09 12:53:04;;;;;;;3.63;1.60;;;14.30;65.80;;;;;;5046371;28;20987;-75
2023/03/09 12:55:36;;;;;;;4.23;1.57;;;14.40;65.70;;;;;;5044973;28;20436;-75
2023/03/09 12:58:22;;;;;;;5.37;1.40;;;14.30;65.70;;;;;;5041152;28;20552;-73